Gaoyao, China
Current Conditions -  °F | °C
As of 8:00 PM on Thursday 30 Oct 2014 (Local Time) from ZGGG Reporting Station
Broken Clouds Broken Clouds  
Wind Chill: 82°   Ceiling: 4600
Heat Index: 85°   Visibility: 5mi
Dew Point: 66°   Wind: 2mph
Humidity: 58%   Direction: NA
Pressure: 29.97"   Gusts: NA
Location:  23.05°N, 112.47°E
Report Text: ZGGG 301200Z VRB01MPS 8000 BKN046 28/19 Q1015 NOSIG
Loading
Personal Weather Stations






























Interactive Weather Map
Tropical Storm Tracking
New forecast layout! Learn more

10-Day Weather Forecast

Advertisements
Track Severe Weather on mobile